Time;durP1;ratioP1;P1;durP2;ratioP2;P2;SDS_P1;SDS_P2;PMS_P1;PMS_P2;Temp;Humidity;BMP_temperature;BMP_pressure;BME280_temperature;BME280_humidity;BME280_pressure;Samples;Min_cycle;Max_cycle;Signal;HPM_P1;HPM_P2
2022/11/03 00:00:26;;;;;;;18.02;6.70;;;10.10;99.90;;;;;;5074296;28;20209;-54
2022/11/03 00:02:52;;;;;;;14.85;5.60;;;10.10;99.90;;;;;;5092448;28;20292;-55
2022/11/03 00:08:02;;;;;;;10.23;2.85;;;10.10;99.90;;;;;;5092457;28;20597;-55
2022/11/03 00:10:29;;;;;;;13.57;3.70;;;10.20;99.90;;;;;;5092424;28;20175;-54
2022/11/03 00:12:55;;;;;;;6.10;2.50;;;10.20;99.90;;;;;;5092348;28;20161;-55
2022/11/03 00:15:20;;;;;;;22.40;7.63;;;10.20;99.90;;;;;;5092306;28;20526;-54
2022/11/03 00:17:46;;;;;;;20.73;8.48;;;10.10;99.90;;;;;;5092189;28;20594;-53
2022/11/03 00:20:11;;;;;;;18.88;4.88;;;10.20;99.90;;;;;;5092544;28;20212;-54
2022/11/03 00:22:37;;;;;;;12.85;3.67;;;10.20;99.90;;;;;;5092569;28;20704;-54
2022/11/03 00:25:03;;;;;;;18.60;5.45;;;10.30;99.90;;;;;;5092077;28;20173;-54
2022/11/03 00:27:28;;;;;;;12.00;3.05;;;10.30;99.90;;;;;;5092315;28;20173;-54
2022/11/03 00:29:54;;;;;;;15.25;4.30;;;10.40;99.90;;;;;;5092082;28;20524;-54
2022/11/03 00:32:20;;;;;;;12.68;4.95;;;10.40;99.90;;;;;;5092301;28;20257;-54
2022/11/03 00:34:45;;;;;;;13.57;3.95;;;10.40;99.90;;;;;;5092049;28;20268;-54
2022/11/03 00:37:11;;;;;;;12.48;3.75;;;10.50;99.90;;;;;;5092219;28;20209;-54
2022/11/03 00:39:36;;;;;;;12.90;3.67;;;10.50;99.90;;;;;;5091918;28;20173;-54
2022/11/03 00:42:02;;;;;;;6.93;2.95;;;10.50;99.90;;;;;;5091804;28;20172;-54
2022/11/03 00:44:27;;;;;;;10.13;3.05;;;10.50;99.90;;;;;;5091653;28;20248;-54
2022/11/03 00:46:53;;;;;;;7.30;2.15;;;10.60;99.90;;;;;;5091620;28;20161;-54
2022/11/03 00:49:18;;;;;;;11.07;3.55;;;10.60;99.90;;;;;;5091782;28;20223;-54
2022/11/03 00:51:44;;;;;;;9.35;2.50;;;10.60;99.90;;;;;;5091816;28;20218;-54
2022/11/03 00:54:10;;;;;;;10.23;2.83;;;10.60;99.90;;;;;;5092221;28;20161;-54
2022/11/03 00:56:38;;;;;;;9.02;2.60;;;10.60;99.90;;;;;;5091672;28;20179;-54
2022/11/03 00:59:04;;;;;;;11.82;2.45;;;10.60;99.90;;;;;;5091683;28;20716;-53
2022/11/03 01:01:36;;;;;;;10.13;2.33;;;10.60;99.90;;;;;;5091514;28;20656;-55
2022/11/03 01:06:48;;;;;;;8.30;2.17;;;10.60;99.90;;;;;;5091716;28;20217;-54
2022/11/03 01:09:17;;;;;;;9.52;2.33;;;10.70;99.90;;;;;;5095358;28;20166;-54
2022/11/03 01:11:59;;;;;;;6.72;2.33;;;10.70;99.90;;;;;;5094447;28;20169;-52
2022/11/03 01:14:33;;;;;;;6.50;2.45;;;10.70;99.90;;;;;;5095719;28;20168;-52
2022/11/03 01:17:00;;;;;;;12.23;2.40;;;10.60;99.90;;;;;;5077390;28;20663;-52
2022/11/03 01:19:25;;;;;;;10.93;2.35;;;10.70;99.90;;;;;;5095835;28;20184;-52
2022/11/03 01:21:52;;;;;;;6.78;2.22;;;10.70;99.90;;;;;;5095809;28;20527;-52
2022/11/03 01:24:18;;;;;;;11.93;2.88;;;10.70;99.90;;;;;;5095618;28;20176;-52
2022/11/03 01:26:44;;;;;;;7.72;2.08;;;10.70;99.90;;;;;;5095437;28;20527;-52
2022/11/03 01:29:09;;;;;;;10.60;2.50;;;10.70;99.90;;;;;;5095758;28;20164;-51
2022/11/03 01:31:35;;;;;;;11.52;2.42;;;10.70;99.90;;;;;;5095613;28;20176;-53
2022/11/03 01:34:00;;;;;;;8.75;2.50;;;10.70;99.90;;;;;;5095428;28;21103;-52
2022/11/03 01:36:26;;;;;;;13.50;3.28;;;10.70;99.90;;;;;;5095236;28;20172;-52
2022/11/03 01:38:54;;;;;;;10.07;3.08;;;10.70;99.90;;;;;;5095252;28;20283;-52
2022/11/03 01:41:22;;;;;;;8.98;2.20;;;10.70;99.90;;;;;;5095414;28;20170;-52
2022/11/03 01:44:11;;;;;;;6.07;2.30;;;10.70;99.90;;;;;;5095416;28;20189;-51
2022/11/03 01:47:03;;;;;;;9.18;3.45;;;10.70;99.90;;;;;;5095326;28;20172;-51
2022/11/03 01:49:51;;;;;;;9.20;2.55;;;10.70;99.90;;;;;;5095079;28;20162;-52
2022/11/03 01:52:21;;;;;;;8.75;2.35;;;10.70;99.90;;;;;;5095019;28;20195;-52
2022/11/03 01:54:51;;;;;;;11.90;2.78;;;10.70;99.90;;;;;;5095139;28;20588;-52
2022/11/03 01:57:24;;;;;;;11.68;3.03;;;10.70;99.90;;;;;;5095026;28;20212;-51
2022/11/03 01:59:50;;;;;;;9.05;2.65;;;10.70;99.90;;;;;;5094979;28;20169;-51
2022/11/03 02:02:16;;;;;;;10.75;2.92;;;10.70;99.90;;;;;;5094645;28;20270;-51
2022/11/03 02:04:42;;;;;;;9.20;2.22;;;10.70;99.90;;;;;;5094800;28;20553;-51
2022/11/03 02:07:29;;;;;;;11.43;2.80;;;10.70;99.90;;;;;;5095101;28;20219;-51
2022/11/03 02:09:55;;;;;;;7.50;2.60;;;10.70;99.90;;;;;;5094637;28;20568;-52
2022/11/03 02:12:21;;;;;;;13.40;2.88;;;10.70;99.90;;;;;;5094639;28;20196;-51
2022/11/03 02:15:09;;;;;;;6.95;2.40;;;10.80;99.90;;;;;;5094608;28;20587;-52
2022/11/03 02:17:35;;;;;;;10.98;2.58;;;10.80;99.90;;;;;;5094426;28;20717;-52
2022/11/03 02:20:06;;;;;;;9.82;2.20;;;10.80;99.90;;;;;;5094019;28;20211;-54
2022/11/03 02:22:39;;;;;;;4.18;1.88;;;10.80;99.90;;;;;;5094379;28;20248;-54
2022/11/03 02:25:43;;;;;;;13.82;2.75;;;10.80;99.90;;;;;;5094359;28;20249;-54
2022/11/03 02:28:11;;;;;;;10.07;2.58;;;10.80;99.90;;;;;;5094874;28;20180;-54
2022/11/03 02:30:48;;;;;;;9.60;2.83;;;10.80;99.90;;;;;;5094606;28;20162;-54
2022/11/03 02:33:32;;;;;;;3.83;1.90;;;10.80;99.90;;;;;;5094380;28;20596;-54
2022/11/03 02:36:08;;;;;;;9.77;2.17;;;10.80;99.90;;;;;;5094212;28;20177;-53
2022/11/03 02:38:41;;;;;;;8.65;2.33;;;10.80;99.90;;;;;;5094264;28;20626;-53
2022/11/03 02:41:08;;;;;;;7.53;2.20;;;10.90;99.90;;;;;;5094682;28;20570;-52
2022/11/03 02:43:34;;;;;;;12.95;2.85;;;10.80;99.90;;;;;;5094017;28;20222;-54
2022/11/03 02:46:03;;;;;;;8.50;2.55;;;10.80;99.90;;;;;;5094018;28;20162;-54
2022/11/03 02:48:29;;;;;;;9.65;2.22;;;10.80;99.90;;;;;;5094021;28;20200;-54
2022/11/03 02:50:54;;;;;;;7.18;2.38;;;10.80;99.90;;;;;;5093874;28;20193;-54
2022/11/03 02:53:20;;;;;;;11.63;2.35;;;10.80;99.90;;;;;;5094117;28;20173;-54
2022/11/03 02:56:18;;;;;;;6.63;2.20;;;10.90;99.90;;;;;;5093800;28;20173;-53
2022/11/03 02:58:59;;;;;;;10.20;2.92;;;10.80;99.90;;;;;;5093556;28;20216;-53
2022/11/03 03:01:45;;;;;;;7.50;2.35;;;10.90;99.90;;;;;;5093687;28;20217;-53
2022/11/03 03:04:33;;;;;;;9.95;2.60;;;10.80;99.90;;;;;;5053736;28;20202;-52
2022/11/03 03:07:06;;;;;;;12.30;2.90;;;10.80;99.90;;;;;;5053330;28;20179;-52
2022/11/03 03:09:40;;;;;;;10.18;2.53;;;10.80;99.90;;;;;;5053327;28;20174;-52
2022/11/03 03:12:07;;;;;;;11.20;2.75;;;10.80;99.90;;;;;;5053225;28;20170;-52
2022/11/03 03:14:40;;;;;;;11.13;2.55;;;10.90;99.90;;;;;;5053183;28;20220;-51
2022/11/03 03:17:12;;;;;;;7.20;3.00;;;10.90;99.90;;;;;;5053448;28;20666;-51
2022/11/03 03:19:48;;;;;;;7.10;2.40;;;10.90;99.90;;;;;;5053361;28;20163;-51
2022/11/03 03:22:30;;;;;;;9.23;3.08;;;11.00;99.90;;;;;;5052950;28;20170;-51
2022/11/03 03:25:12;;;;;;;13.80;2.60;;;11.00;99.90;;;;;;5052997;28;20181;-52
2022/11/03 03:27:42;;;;;;;6.28;2.50;;;11.00;99.90;;;;;;5053304;28;20180;-52
2022/11/03 03:30:08;;;;;;;10.27;2.90;;;11.60;99.90;;;;;;5052415;28;20167;-51
2022/11/03 03:32:39;;;;;;;13.95;2.47;;;11.00;99.90;;;;;;5052856;28;20177;-52
2022/11/03 03:35:08;;;;;;;11.88;3.28;;;11.00;99.90;;;;;;5052818;28;20163;-51
2022/11/03 03:37:38;;;;;;;7.45;2.85;;;11.00;99.90;;;;;;5052924;28;20206;-51
2022/11/03 03:40:09;;;;;;;13.57;3.30;;;11.00;99.90;;;;;;5068076;28;20221;-51
2022/11/03 03:42:36;;;;;;;9.80;3.38;;;11.00;99.90;;;;;;5052940;28;20535;-52
2022/11/03 03:45:05;;;;;;;9.48;2.53;;;11.00;99.90;;;;;;5052680;28;20646;-51
2022/11/03 03:47:33;;;;;;;9.65;2.53;;;11.00;99.90;;;;;;5052523;28;20174;-52
2022/11/03 03:50:00;;;;;;;12.38;3.13;;;11.00;99.90;;;;;;5052486;28;20175;-52
2022/11/03 03:52:27;;;;;;;10.32;3.03;;;11.00;99.90;;;;;;5052716;28;20171;-51
2022/11/03 03:54:54;;;;;;;16.13;2.83;;;11.10;99.90;;;;;;5052475;28;20653;-52
2022/11/03 03:57:22;;;;;;;13.35;2.42;;;11.00;99.90;;;;;;5052401;28;20198;-51
2022/11/03 03:59:48;;;;;;;7.93;2.60;;;11.10;99.90;;;;;;5052387;28;20167;-53
2022/11/03 04:02:15;;;;;;;12.30;2.67;;;11.00;99.90;;;;;;5064784;28;20296;-53
2022/11/03 04:04:41;;;;;;;9.55;2.50;;;11.00;99.90;;;;;;5093045;28;20509;-52
2022/11/03 04:09:51;;;;;;;10.13;2.50;;;11.00;99.90;;;;;;5092451;28;20172;-53
2022/11/03 04:23:16;;;;;;;6.93;3.17;;;11.00;99.90;;;;;;5092511;28;20168;-54
2022/11/03 04:25:47;;;;;;;12.45;3.25;;;11.00;99.90;;;;;;5090806;28;20178;-52
2022/11/03 04:28:14;;;;;;;11.50;2.88;;;11.00;99.90;;;;;;5092261;28;20691;-54
2022/11/03 04:30:41;;;;;;;13.50;3.00;;;11.00;99.90;;;;;;5092738;28;20180;-54
2022/11/03 04:33:20;;;;;;;6.22;2.38;;;11.00;99.90;;;;;;5091078;28;20587;-54
2022/11/03 04:35:46;;;;;;;10.38;2.95;;;11.00;99.90;;;;;;5092092;28;20282;-54
2022/11/03 04:38:12;;;;;;;10.50;2.55;;;11.00;99.90;;;;;;5092135;28;20292;-54
2022/11/03 04:40:43;;;;;;;10.77;2.60;;;11.00;99.90;;;;;;5092294;28;20692;-55
2022/11/03 04:43:14;;;;;;;8.82;2.80;;;11.10;99.90;;;;;;5092125;28;20636;-54
2022/11/03 04:45:44;;;;;;;6.80;3.45;;;11.00;99.90;;;;;;5092159;28;20161;-52
2022/11/03 04:48:15;;;;;;;10.70;3.00;;;11.00;99.90;;;;;;5092160;28;20158;-54
2022/11/03 04:50:42;;;;;;;12.13;2.70;;;11.10;99.90;;;;;;5091893;28;20165;-53
2022/11/03 04:53:13;;;;;;;9.93;3.53;;;11.00;99.90;;;;;;5092173;28;20169;-53
2022/11/03 04:55:40;;;;;;;8.18;2.75;;;11.10;99.90;;;;;;5092341;28;20174;-54
2022/11/03 04:58:31;;;;;;;9.48;2.85;;;11.50;99.90;;;;;;5092031;28;20201;-54
2022/11/03 05:00:59;;;;;;;14.63;2.85;;;11.10;99.90;;;;;;5062193;28;20203;-52
2022/11/03 05:03:31;;;;;;;10.63;3.08;;;11.10;99.90;;;;;;5091569;28;20291;-54
2022/11/03 05:05:57;;;;;;;9.73;2.72;;;11.10;99.90;;;;;;5091632;28;20211;-54
2022/11/03 05:08:23;;;;;;;6.93;2.92;;;11.10;99.90;;;;;;5091660;28;20165;-53
2022/11/03 05:10:49;;;;;;;10.25;3.17;;;11.10;99.90;;;;;;5091873;28;20209;-52
2022/11/03 05:13:22;;;;;;;12.57;3.22;;;11.10;99.90;;;;;;5091728;28;20559;-51
2022/11/03 05:15:50;;;;;;;9.80;2.75;;;11.20;99.90;;;;;;5090300;28;20216;-51
2022/11/03 05:18:30;;;;;;;9.02;2.50;;;11.10;99.90;;;;;;5091421;28;20676;-52
2022/11/03 05:21:03;;;;;;;8.57;2.45;;;11.20;99.90;;;;;;5091817;28;20172;-54
2022/11/03 05:23:35;;;;;;;6.15;2.45;;;11.20;99.90;;;;;;5091786;28;20264;-54
2022/11/03 05:26:04;;;;;;;9.98;2.88;;;11.20;99.90;;;;;;5091783;28;20169;-54
2022/11/03 05:28:33;;;;;;;11.93;2.63;;;11.20;99.90;;;;;;5091513;28;20161;-54
2022/11/03 05:30:59;;;;;;;11.68;2.72;;;11.20;99.90;;;;;;5091567;28;20169;-54
2022/11/03 05:33:33;;;;;;;9.90;2.60;;;11.20;99.90;;;;;;5091822;28;20169;-54
2022/11/03 05:36:04;;;;;;;10.23;2.75;;;11.20;99.90;;;;;;5091460;28;20238;-53
2022/11/03 05:38:32;;;;;;;7.85;2.08;;;11.20;99.90;;;;;;5091310;28;20208;-53
2022/11/03 05:40:58;;;;;;;9.75;2.83;;;11.20;99.90;;;;;;5091515;28;20174;-55
2022/11/03 05:43:26;;;;;;;8.52;2.63;;;11.20;99.90;;;;;;5090112;28;20576;-54
2022/11/03 05:45:56;;;;;;;11.55;2.70;;;11.20;99.90;;;;;;5073256;28;20165;-55
2022/11/03 05:48:40;;;;;;;11.57;2.20;;;11.20;99.90;;;;;;5091324;28;20157;-55
2022/11/03 05:51:31;;;;;;;16.02;2.88;;;11.20;99.90;;;;;;5091897;28;20248;-54
2022/11/03 05:53:59;;;;;;;9.10;2.38;;;11.30;99.90;;;;;;5092649;28;20637;-54
2022/11/03 05:56:25;;;;;;;7.70;2.20;;;11.30;99.90;;;;;;5094946;28;20254;-54
2022/11/03 05:58:54;;;;;;;5.30;2.63;;;11.30;99.90;;;;;;5095067;28;20371;-52
2022/11/03 06:01:30;;;;;;;7.72;2.40;;;11.30;99.90;;;;;;5094862;28;20157;-54
2022/11/03 06:04:00;;;;;;;10.55;2.75;;;11.30;99.90;;;;;;5094812;28;20584;-55
2022/11/03 06:06:36;;;;;;;8.48;2.63;;;11.30;99.90;;;;;;5095091;28;20170;-53
2022/11/03 06:09:15;;;;;;;10.18;3.28;;;11.30;99.90;;;;;;5094914;28;20531;-52
2022/11/03 06:11:42;;;;;;;5.70;2.22;;;11.30;99.90;;;;;;5094571;28;20195;-52
2022/11/03 06:14:19;;;;;;;11.32;2.85;;;11.30;99.90;;;;;;5094907;28;20166;-52
2022/11/03 06:16:54;;;;;;;8.23;3.08;;;11.30;99.90;;;;;;5094760;28;20157;-52
2022/11/03 06:19:26;;;;;;;5.28;2.72;;;11.20;99.90;;;;;;5092910;28;20173;-52
2022/11/03 06:21:55;;;;;;;10.73;2.88;;;11.20;99.90;;;;;;5094560;28;20636;-52
2022/11/03 06:24:27;;;;;;;8.30;3.33;;;11.10;99.90;;;;;;5094433;28;20164;-52
2022/11/03 06:26:53;;;;;;;7.00;2.95;;;11.10;99.90;;;;;;5093080;28;20192;-53
2022/11/03 06:29:20;;;;;;;12.52;2.83;;;11.10;99.90;;;;;;5094354;28;20629;-53
2022/11/03 06:31:48;;;;;;;9.60;3.15;;;11.00;99.90;;;;;;5094188;28;20162;-52
2022/11/03 06:34:29;;;;;;;11.10;3.13;;;11.10;99.90;;;;;;5094395;28;20170;-52
2022/11/03 06:36:56;;;;;;;16.58;3.75;;;11.00;99.90;;;;;;5094023;28;20213;-52
2022/11/03 06:39:23;;;;;;;8.38;3.20;;;11.00;99.90;;;;;;5094088;28;20165;-52
2022/11/03 06:41:49;;;;;;;9.65;2.72;;;11.00;99.90;;;;;;5094307;28;20547;-53
2022/11/03 06:44:36;;;;;;;6.68;3.05;;;11.10;99.90;;;;;;5093922;28;20177;-52
2022/11/03 06:47:22;;;;;;;9.80;2.42;;;11.10;99.90;;;;;;5094191;28;20548;-53
2022/11/03 06:49:50;;;;;;;10.55;2.92;;;11.10;99.90;;;;;;5093897;28;20183;-53
2022/11/03 06:52:38;;;;;;;14.68;2.90;;;11.10;99.90;;;;;;5093884;28;20201;-52
2022/11/03 06:55:07;;;;;;;7.43;2.80;;;11.10;99.90;;;;;;5093743;28;20290;-52
2022/11/03 06:57:37;;;;;;;13.77;3.00;;;11.10;99.90;;;;;;5093689;28;20204;-53
2022/11/03 07:00:29;;;;;;;7.72;2.47;;;11.10;99.90;;;;;;5093663;28;20161;-52
2022/11/03 07:03:07;;;;;;;10.60;3.08;;;11.10;99.90;;;;;;5088800;28;20740;-53
2022/11/03 07:05:33;;;;;;;11.52;2.63;;;11.20;99.90;;;;;;5092438;28;20169;-53
2022/11/03 07:08:02;;;;;;;6.13;2.10;;;11.30;99.90;;;;;;5093458;28;20290;-52
2022/11/03 07:10:32;;;;;;;7.50;2.53;;;11.30;99.90;;;;;;5106305;28;20667;-52
2022/11/03 07:13:03;;;;;;;8.20;3.20;;;11.50;99.90;;;;;;5114004;28;20188;-52
2022/11/03 07:15:35;;;;;;;10.20;2.60;;;11.50;99.90;;;;;;5113496;28;20248;-53
2022/11/03 07:18:03;;;;;;;8.32;2.70;;;11.60;99.90;;;;;;5113564;28;20204;-53
2022/11/03 07:20:29;;;;;;;6.97;2.90;;;11.60;99.90;;;;;;5113626;28;20192;-53
2022/11/03 07:22:58;;;;;;;8.50;2.63;;;11.70;99.90;;;;;;5113874;28;20253;-52
2022/11/03 07:25:24;;;;;;;9.60;2.58;;;11.80;99.90;;;;;;5113114;28;20171;-54
2022/11/03 07:27:53;;;;;;;10.43;2.78;;;11.80;99.90;;;;;;5113398;28;20168;-52
2022/11/03 07:30:20;;;;;;;9.88;3.13;;;11.90;99.90;;;;;;5112086;28;20177;-52
2022/11/03 07:32:50;;;;;;;10.25;2.92;;;11.90;99.90;;;;;;5108307;28;20175;-52
2022/11/03 07:35:24;;;;;;;8.88;2.75;;;12.00;99.90;;;;;;5111148;28;20171;-53
2022/11/03 07:37:51;;;;;;;8.95;2.35;;;12.10;99.90;;;;;;5112476;28;20200;-52
2022/11/03 07:40:24;;;;;;;9.60;2.83;;;12.10;99.90;;;;;;5110296;28;20180;-53
2022/11/03 07:42:51;;;;;;;7.30;3.22;;;12.20;99.90;;;;;;5092009;28;20272;-52
2022/11/03 07:45:38;;;;;;;9.40;2.67;;;12.20;99.90;;;;;;5091699;28;20651;-52
2022/11/03 07:48:26;;;;;;;7.82;2.65;;;12.20;99.90;;;;;;5091804;28;20245;-53
2022/11/03 07:50:58;;;;;;;8.18;2.50;;;12.30;99.90;;;;;;5091085;28;20667;-53
2022/11/03 07:53:29;;;;;;;8.63;2.88;;;12.30;99.90;;;;;;5092050;28;20574;-53
2022/11/03 07:55:55;;;;;;;5.90;2.40;;;12.30;99.90;;;;;;5091966;28;20647;-53
2022/11/03 07:58:49;;;;;;;5.45;2.40;;;12.30;99.90;;;;;;5091880;28;20209;-53
2022/11/03 08:01:27;;;;;;;6.18;2.63;;;12.30;99.90;;;;;;5088081;28;20177;-53
2022/11/03 08:03:57;;;;;;;7.20;3.33;;;12.20;99.90;;;;;;5092060;28;20270;-52
2022/11/03 08:06:23;;;;;;;6.03;2.63;;;12.20;99.90;;;;;;5092499;28;20272;-53
2022/11/03 08:08:48;;;;;;;10.43;2.83;;;12.30;99.90;;;;;;5092170;28;20668;-52
2022/11/03 08:11:14;;;;;;;8.20;2.63;;;12.30;99.90;;;;;;5092306;28;20227;-53
2022/11/03 08:13:39;;;;;;;9.15;2.70;;;12.30;99.90;;;;;;5092439;28;20200;-53
2022/11/03 08:16:05;;;;;;;9.85;2.80;;;12.30;99.90;;;;;;5092201;28;20177;-53
2022/11/03 08:18:30;;;;;;;9.15;2.63;;;12.30;99.90;;;;;;5092113;28;20204;-52
2022/11/03 08:20:56;;;;;;;7.47;2.33;;;12.30;99.90;;;;;;5092167;28;20170;-53
2022/11/03 08:23:22;;;;;;;8.48;3.15;;;12.40;99.90;;;;;;5092169;28;20169;-53
2022/11/03 08:25:47;;;;;;;11.38;2.88;;;12.40;99.90;;;;;;5092168;28;20165;-53
2022/11/03 08:28:13;;;;;;;6.53;2.75;;;12.40;99.90;;;;;;5091753;28;20162;-53
2022/11/03 08:30:38;;;;;;;9.75;2.80;;;12.40;99.90;;;;;;5092425;28;20161;-53
2022/11/03 08:33:04;;;;;;;7.28;2.78;;;12.40;99.90;;;;;;5092045;28;20298;-54
2022/11/03 08:35:30;;;;;;;8.52;3.05;;;12.50;99.90;;;;;;5092217;28;20629;-53
2022/11/03 08:37:55;;;;;;;9.30;3.47;;;12.50;99.90;;;;;;5091840;28;20197;-53
2022/11/03 08:40:21;;;;;;;10.23;2.88;;;12.50;99.90;;;;;;5091858;28;20169;-53
2022/11/03 08:42:46;;;;;;;11.90;2.70;;;12.50;99.90;;;;;;5092028;28;20172;-52
2022/11/03 08:45:12;;;;;;;10.65;4.53;;;12.60;99.90;;;;;;5091940;28;20161;-53
2022/11/03 08:47:38;;;;;;;4.90;2.65;;;12.60;99.90;;;;;;5091988;28;20522;-53
2022/11/03 08:50:04;;;;;;;6.28;3.08;;;12.60;99.90;;;;;;5092033;28;20508;-53
2022/11/03 08:52:29;;;;;;;12.52;4.30;;;12.60;99.90;;;;;;5091743;28;20241;-53
2022/11/03 08:54:55;;;;;;;6.18;2.90;;;12.70;99.90;;;;;;5091809;28;20197;-53
2022/11/03 08:57:21;;;;;;;10.40;3.10;;;12.70;99.90;;;;;;5091731;28;20185;-53
2022/11/03 08:59:46;;;;;;;11.02;2.78;;;12.70;99.90;;;;;;5091954;28;20173;-52
2022/11/03 09:02:12;;;;;;;8.88;2.60;;;12.70;99.90;;;;;;5091568;28;20608;-53
2022/11/03 09:04:37;;;;;;;6.40;2.80;;;12.80;99.90;;;;;;5092023;28;20720;-53
2022/11/03 09:07:03;;;;;;;26.85;3.88;;;12.80;99.90;;;;;;5091650;28;20166;-53
2022/11/03 09:09:28;;;;;;;9.55;2.85;;;12.80;99.90;;;;;;5091602;28;20192;-53
2022/11/03 09:11:54;;;;;;;5.90;2.70;;;12.80;99.90;;;;;;5091575;28;20166;-53
2022/11/03 09:14:19;;;;;;;7.65;3.10;;;12.90;99.90;;;;;;5091597;28;20652;-53
2022/11/03 09:16:45;;;;;;;9.77;2.95;;;12.90;99.90;;;;;;5091634;28;20645;-53
2022/11/03 09:19:10;;;;;;;12.52;3.20;;;13.00;99.90;;;;;;5073324;28;20230;-53
2022/11/03 09:21:36;;;;;;;8.82;2.53;;;13.00;99.90;;;;;;5091738;28;20525;-53
2022/11/03 09:24:01;;;;;;;5.28;3.15;;;13.00;99.90;;;;;;5091507;28;20641;-53
2022/11/03 09:26:27;;;;;;;6.50;2.30;;;13.10;99.90;;;;;;5091377;28;20637;-52
2022/11/03 09:28:53;;;;;;;9.07;3.17;;;13.20;99.90;;;;;;5092810;28;20177;-53
2022/11/03 09:31:18;;;;;;;7.18;2.40;;;13.30;99.90;;;;;;5095443;28;20162;-53
2022/11/03 09:33:44;;;;;;;10.27;2.90;;;13.30;99.90;;;;;;5095345;28;20166;-53
2022/11/03 09:36:10;;;;;;;9.00;2.60;;;13.40;99.90;;;;;;5095549;28;20173;-53
2022/11/03 09:38:35;;;;;;;9.20;2.50;;;13.50;99.90;;;;;;5095507;28;20204;-53
2022/11/03 09:41:04;;;;;;;7.90;2.67;;;13.40;99.90;;;;;;5095237;28;20197;-52
2022/11/03 09:43:31;;;;;;;6.63;2.40;;;13.50;99.90;;;;;;5094692;28;20172;-53
2022/11/03 09:45:57;;;;;;;9.07;2.80;;;13.50;99.90;;;;;;5095119;28;20169;-52
2022/11/03 09:48:23;;;;;;;8.63;2.83;;;13.60;99.90;;;;;;5095303;28;20177;-53
2022/11/03 09:50:53;;;;;;;6.78;2.58;;;13.60;99.90;;;;;;5095018;28;20218;-52
2022/11/03 09:53:19;;;;;;;5.50;2.30;;;13.60;99.90;;;;;;5095171;28;20255;-53
2022/11/03 09:55:45;;;;;;;9.90;2.40;;;13.60;99.90;;;;;;5094849;28;20166;-52
2022/11/03 09:58:15;;;;;;;4.10;2.05;;;13.70;99.90;;;;;;5094608;28;20207;-53
2022/11/03 10:00:41;;;;;;;4.05;1.60;;;13.70;99.90;;;;;;5094211;28;20165;-52
2022/11/03 10:03:12;;;;;;;12.68;2.35;;;13.70;99.90;;;;;;5094810;28;20228;-52
2022/11/03 10:05:38;;;;;;;7.18;2.83;;;13.70;99.90;;;;;;5095268;28;20169;-52
2022/11/03 10:08:22;;;;;;;13.00;2.50;;;13.70;99.90;;;;;;5094867;28;20234;-52
2022/11/03 10:10:52;;;;;;;8.07;2.35;;;13.80;99.90;;;;;;5094442;28;20218;-52
2022/11/03 10:13:29;;;;;;;7.00;2.05;;;13.80;99.90;;;;;;5094651;28;20182;-53
2022/11/03 10:15:56;;;;;;;8.88;2.38;;;13.90;99.90;;;;;;5094855;28;20211;-52
2022/11/03 10:18:22;;;;;;;4.95;2.13;;;13.90;99.90;;;;;;5094453;28;20593;-53
2022/11/03 10:20:48;;;;;;;4.35;1.90;;;14.00;99.90;;;;;;5094531;28;20234;-53
2022/11/03 10:23:13;;;;;;;5.35;2.53;;;14.00;99.90;;;;;;5094550;28;20165;-52
2022/11/03 10:25:42;;;;;;;3.00;1.90;;;14.00;99.90;;;;;;5094513;28;20219;-52
2022/11/03 10:28:15;;;;;;;5.85;2.42;;;14.10;99.90;;;;;;5094726;28;20218;-52
2022/11/03 10:30:59;;;;;;;6.80;2.47;;;14.10;99.90;;;;;;5094605;28;20169;-52
2022/11/03 10:33:36;;;;;;;6.70;1.95;;;14.20;99.90;;;;;;5094376;28;20192;-53
2022/11/03 10:36:25;;;;;;;7.00;2.65;;;14.20;99.90;;;;;;5094209;28;20625;-53
2022/11/03 10:38:52;;;;;;;8.57;2.30;;;14.20;99.90;;;;;;5079319;28;20224;-52
2022/11/03 10:41:18;;;;;;;9.90;2.33;;;14.20;99.90;;;;;;5094112;28;20192;-53
2022/11/03 10:44:24;;;;;;;6.00;2.53;;;14.20;99.90;;;;;;5094179;28;20226;-52
2022/11/03 10:47:02;;;;;;;7.03;2.15;;;14.30;99.90;;;;;;5093386;28;20178;-52
2022/11/03 10:49:32;;;;;;;8.52;2.78;;;14.30;99.90;;;;;;5094234;28;20584;-53
2022/11/03 10:52:06;;;;;;;6.70;2.40;;;14.30;99.90;;;;;;5093795;28;20161;-52
2022/11/03 10:54:35;;;;;;;8.93;2.65;;;14.30;99.90;;;;;;5093867;28;20254;-52
2022/11/03 10:57:00;;;;;;;6.90;2.30;;;14.30;99.90;;;;;;5094074;28;20192;-53
2022/11/03 10:59:35;;;;;;;4.80;2.15;;;14.30;99.90;;;;;;5093781;28;20590;-53
2022/11/03 11:02:02;;;;;;;12.02;3.55;;;14.20;99.90;;;;;;5093716;28;20243;-52
2022/11/03 11:04:30;;;;;;;6.15;3.10;;;14.20;99.90;;;;;;5093985;28;20195;-52
2022/11/03 11:06:56;;;;;;;9.15;2.67;;;14.20;99.90;;;;;;5093755;28;20259;-53
2022/11/03 11:09:24;;;;;;;4.97;2.63;;;14.10;99.90;;;;;;5104959;28;20177;-53
2022/11/03 11:12:16;;;;;;;9.80;2.78;;;14.00;99.90;;;;;;5113234;28;20657;-52
2022/11/03 11:14:57;;;;;;;8.95;2.88;;;13.90;99.90;;;;;;5113385;28;20157;-53
2022/11/03 11:17:54;;;;;;;7.68;2.47;;;13.90;99.90;;;;;;5113448;28;20195;-52
2022/11/03 11:20:34;;;;;;;9.95;2.67;;;13.90;99.90;;;;;;5057963;28;20259;-53
2022/11/03 11:23:28;;;;;;;7.30;3.03;;;13.90;99.90;;;;;;5113242;28;20195;-53
2022/11/03 11:26:09;;;;;;;9.70;2.70;;;13.90;99.90;;;;;;5085072;28;20257;-52
2022/11/03 11:28:35;;;;;;;7.93;2.20;;;13.90;99.90;;;;;;5101435;28;20219;-53
2022/11/03 11:31:20;;;;;;;7.55;2.38;;;13.90;99.90;;;;;;5101373;28;20173;-53
2022/11/03 11:33:45;;;;;;;5.38;2.45;;;14.00;99.90;;;;;;5100485;28;20165;-52
2022/11/03 11:36:23;;;;;;;4.82;2.10;;;14.00;99.90;;;;;;5103074;28;20500;-53
2022/11/03 11:38:51;;;;;;;9.02;2.70;;;13.90;99.90;;;;;;5093058;28;20254;-53
2022/11/03 11:41:17;;;;;;;10.00;2.65;;;14.00;99.90;;;;;;5092963;28;20566;-53
2022/11/03 11:43:42;;;;;;;6.30;2.65;;;14.00;99.90;;;;;;5092935;28;20173;-53
2022/11/03 11:46:38;;;;;;;6.05;2.33;;;13.90;99.90;;;;;;5075157;28;20219;-52
2022/11/03 11:49:04;;;;;;;4.10;2.10;;;13.90;99.90;;;;;;5074682;28;20177;-53
2022/11/03 11:51:34;;;;;;;9.65;3.08;;;13.80;99.90;;;;;;5092035;28;20166;-52
2022/11/03 11:54:04;;;;;;;10.18;4.32;;;13.70;99.90;;;;;;5092708;28;20164;-53
2022/11/03 11:56:30;;;;;;;26.83;13.70;;;13.60;99.90;;;;;;5092641;28;20164;-53
2022/11/03 11:58:56;;;;;;;28.85;17.10;;;13.70;99.90;;;;;;5074490;28;20205;-52
2022/11/03 12:01:29;;;;;;;26.30;16.80;;;13.70;99.90;;;;;;5092757;28;20170;-53
2022/11/03 12:03:58;;;;;;;16.05;7.45;;;13.60;99.90;;;;;;5092415;28;20197;-53
2022/11/03 12:06:39;;;;;;;12.18;5.13;;;13.60;99.90;;;;;;5092271;28;20169;-53
2022/11/03 12:09:26;;;;;;;17.48;8.88;;;13.60;99.90;;;;;;5092503;28;20169;-53
2022/11/03 12:11:57;;;;;;;17.65;9.80;;;13.60;99.90;;;;;;5092687;28;20550;-52
2022/11/03 12:14:24;;;;;;;9.20;3.60;;;13.70;99.90;;;;;;5092097;28;20248;-53
2022/11/03 12:16:50;;;;;;;8.02;3.65;;;13.70;99.90;;;;;;5092323;28;20655;-52
2022/11/03 12:19:39;;;;;;;11.15;5.22;;;13.90;99.90;;;;;;5091907;28;20582;-53
2022/11/03 12:22:10;;;;;;;9.70;4.10;;;14.00;99.90;;;;;;5092488;28;20613;-53
2022/11/03 12:24:48;;;;;;;15.35;5.82;;;14.00;99.90;;;;;;5074677;28;20177;-54
2022/11/03 12:27:37;;;;;;;12.10;3.97;;;14.00;99.90;;;;;;5092408;28;20592;-53
2022/11/03 12:30:17;;;;;;;16.70;9.52;;;14.00;99.90;;;;;;5081408;28;20740;-53
2022/11/03 12:32:44;;;;;;;20.27;9.00;;;13.90;99.90;;;;;;5092303;28;20248;-53
2022/11/03 12:35:12;;;;;;;10.20;4.30;;;14.00;99.90;;;;;;5092061;28;20663;-53
2022/11/03 12:37:38;;;;;;;16.70;8.85;;;13.90;99.90;;;;;;5092043;28;20250;-53
2022/11/03 12:40:05;;;;;;;22.58;11.88;;;13.70;99.90;;;;;;5092363;28;20173;-53
2022/11/03 12:42:30;;;;;;;11.82;4.88;;;13.70;99.90;;;;;;5091899;28;20625;-53
2022/11/03 12:44:56;;;;;;;14.18;6.78;;;13.60;99.90;;;;;;5091527;28;20169;-53
2022/11/03 12:47:22;;;;;;;8.70;2.72;;;13.60;99.90;;;;;;5091703;28;20177;-53
2022/11/03 12:49:47;;;;;;;16.17;7.07;;;13.50;99.90;;;;;;5091722;28;20214;-53
2022/11/03 12:52:13;;;;;;;7.13;2.95;;;13.40;99.90;;;;;;5091661;28;20218;-53
2022/11/03 12:54:38;;;;;;;8.88;3.60;;;13.40;99.90;;;;;;5091818;28;20218;-53
2022/11/03 12:57:04;;;;;;;13.07;3.72;;;13.30;99.90;;;;;;5074182;28;20254;-53
2022/11/03 12:59:29;;;;;;;7.10;2.53;;;13.30;99.90;;;;;;5091294;28;20169;-53
2022/11/03 13:01:55;;;;;;;8.68;3.10;;;13.30;99.90;;;;;;5073796;28;20298;-53
2022/11/03 13:04:21;;;;;;;7.82;3.67;;;13.40;99.90;;;;;;5095748;28;20161;-53
2022/11/03 13:06:46;;;;;;;14.68;6.22;;;13.40;99.90;;;;;;5095881;28;20565;-53
2022/11/03 13:09:12;;;;;;;9.77;3.15;;;13.40;99.90;;;;;;5095864;28;20176;-53
2022/11/03 13:14:21;;;;;;;5.88;2.33;;;13.40;99.90;;;;;;5095879;28;20218;-54
2022/11/03 13:16:47;;;;;;;7.47;2.60;;;13.50;99.90;;;;;;5095871;28;20165;-53
2022/11/03 13:19:12;;;;;;;8.70;3.58;;;13.70;99.90;;;;;;5077820;28;20205;-53
2022/11/03 13:21:38;;;;;;;6.03;2.85;;;13.60;99.90;;;;;;5095644;28;20259;-53